Time;durP1;ratioP1;P1;durP2;ratioP2;P2;SDS_P1;SDS_P2;PMS_P1;PMS_P2;Temp;Humidity;BMP_temperature;BMP_pressure;BME280_temperature;BME280_humidity;BME280_pressure;Samples;Min_cycle;Max_cycle;Signal;HPM_P1;HPM_P2
2022/02/26 00:02:14;;;;;;;276.17;63.17;;;;;;;;;;6380930;22;20218;-91
2022/02/26 00:04:41;;;;;;;280.38;64.07;;;;;;;;;;6381007;22;20172;-91
2022/02/26 00:07:08;;;;;;;268.67;61.22;;;;;;;;;;6381409;22;20199;-92
2022/02/26 00:09:35;;;;;;;278.67;61.45;;;;;;;;;;6381218;22;20173;-91
2022/02/26 00:12:02;;;;;;;270.15;61.97;;;;;;;;;;6380101;22;20181;-90
2022/02/26 00:14:28;;;;;;;274.58;62.97;;;;;;;;;;6378185;22;20226;-90
2022/02/26 00:16:55;;;;;;;276.52;65.60;;;;;;;;;;6377457;22;20201;-91
2022/02/26 00:19:22;;;;;;;277.75;63.78;;;;;;;;;;6377264;22;20172;-91
2022/02/26 00:21:49;;;;;;;266.85;59.90;;;;;;;;;;6379188;22;20172;-91
2022/02/26 00:24:15;;;;;;;264.63;63.08;;;;;;;;;;6380142;22;20173;-90
2022/02/26 00:26:42;;;;;;;267.52;60.03;;;;;;;;;;6379061;22;20202;-91
2022/02/26 00:29:08;;;;;;;268.70;60.40;;;;;;;;;;6378612;22;20203;-91
2022/02/26 00:31:35;;;;;;;265.38;60.95;;;;;;;;;;6379412;22;20169;-91
2022/02/26 00:34:01;;;;;;;256.20;60.05;;;;;;;;;;6380705;22;20176;-91
2022/02/26 00:36:29;;;;;;;265.42;61.90;;;;;;;;;;6380649;22;20196;-92
2022/02/26 00:38:56;;;;;;;261.15;60.05;;;;;;;;;;6379501;22;20196;-91
2022/02/26 00:41:25;;;;;;;257.30;59.40;;;;;;;;;;6379924;22;20228;-91
2022/02/26 00:43:52;;;;;;;257.13;59.63;;;;;;;;;;6380441;22;20196;-91
2022/02/26 00:46:18;;;;;;;264.73;61.30;;;;;;;;;;6380789;22;20484;-90
2022/02/26 00:51:30;;;;;;;258.40;60.65;;;;;;;;;;6379310;22;20172;-91
2022/02/26 00:53:57;;;;;;;256.77;60.63;;;;;;;;;;6379539;22;20173;-91
2022/02/26 00:56:23;;;;;;;258.98;58.88;;;;;;;;;;6379876;22;20201;-92
2022/02/26 00:58:51;;;;;;;257.83;59.70;;;;;;;;;;6380431;22;20176;-92
2022/02/26 01:01:17;;;;;;;258.52;60.05;;;;;;;;;;6380961;22;20179;-92
2022/02/26 01:03:43;;;;;;;260.75;60.92;;;;;;;;;;6380639;22;20173;-93
2022/02/26 01:06:10;;;;;;;260.98;61.00;;;;;;;;;;6380024;22;20185;-92
2022/02/26 01:08:38;;;;;;;271.95;63.47;;;;;;;;;;6379276;22;20172;-92
2022/02/26 01:11:04;;;;;;;269.67;62.22;;;;;;;;;;6380066;22;20176;-92
2022/02/26 01:13:31;;;;;;;263.83;59.15;;;;;;;;;;6380734;22;20172;-93
2022/02/26 01:15:57;;;;;;;270.15;61.83;;;;;;;;;;6381330;22;20199;-93
2022/02/26 01:18:24;;;;;;;283.52;62.13;;;;;;;;;;6382228;22;20172;-92
2022/02/26 01:20:50;;;;;;;270.77;61.75;;;;;;;;;;6383358;22;20173;-92
2022/02/26 01:23:17;;;;;;;273.08;62.80;;;;;;;;;;6379178;22;20913;-94
2022/02/26 01:25:45;;;;;;;271.05;61.85;;;;;;;;;;6380016;22;20723;-93
2022/02/26 01:28:11;;;;;;;265.23;61.50;;;;;;;;;;6382579;22;20177;-93
2022/02/26 01:30:37;;;;;;;270.98;61.15;;;;;;;;;;6382584;22;20634;-92
2022/02/26 01:33:04;;;;;;;267.35;61.80;;;;;;;;;;6381929;22;20172;-93
2022/02/26 01:35:31;;;;;;;275.02;63.75;;;;;;;;;;6382238;22;20239;-93
2022/02/26 01:37:57;;;;;;;271.88;62.28;;;;;;;;;;6380075;22;20285;-92
2022/02/26 01:40:23;;;;;;;275.98;63.13;;;;;;;;;;6379233;22;20193;-92
2022/02/26 01:42:51;;;;;;;274.20;62.70;;;;;;;;;;6380320;22;20173;-93
2022/02/26 01:45:18;;;;;;;273.92;65.60;;;;;;;;;;6380385;22;20219;-92
2022/02/26 01:47:45;;;;;;;276.27;64.15;;;;;;;;;;6381596;22;20828;-93
2022/02/26 01:50:12;;;;;;;271.20;62.20;;;;;;;;;;6382238;22;20227;-92
2022/02/26 01:52:39;;;;;;;279.42;64.50;;;;;;;;;;6381825;22;20176;-93
2022/02/26 01:55:06;;;;;;;263.05;60.08;;;;;;;;;;6381245;22;20238;-92
2022/02/26 01:57:33;;;;;;;280.83;64.85;;;;;;;;;;6379316;22;20200;-91
2022/02/26 02:00:01;;;;;;;269.42;64.13;;;;;;;;;;6379096;22;20173;-91
2022/02/26 02:02:27;;;;;;;272.10;60.53;;;;;;;;;;6382253;22;20173;-91
2022/02/26 02:04:54;;;;;;;268.73;62.10;;;;;;;;;;6382344;22;20168;-91
2022/02/26 02:07:20;;;;;;;268.13;61.38;;;;;;;;;;6381769;22;20169;-91
2022/02/26 02:09:47;;;;;;;263.40;63.45;;;;;;;;;;6380528;22;20172;-90
2022/02/26 02:12:13;;;;;;;272.33;63.97;;;;;;;;;;6378989;22;20487;-91
2022/02/26 02:14:40;;;;;;;264.40;60.85;;;;;;;;;;6378736;22;20169;-92
2022/02/26 02:17:07;;;;;;;270.80;62.45;;;;;;;;;;6379958;22;20250;-91
2022/02/26 02:19:34;;;;;;;267.85;63.03;;;;;;;;;;6380803;22;20538;-92
2022/02/26 02:22:04;;;;;;;267.75;62.80;;;;;;;;;;6380806;22;20169;-91
2022/02/26 02:24:30;;;;;;;268.13;62.88;;;;;;;;;;6380888;22;20180;-93
2022/02/26 02:26:57;;;;;;;274.73;63.15;;;;;;;;;;6381266;22;20173;-91
2022/02/26 02:29:24;;;;;;;266.40;61.95;;;;;;;;;;6381661;22;20173;-92
2022/02/26 02:31:50;;;;;;;271.48;62.60;;;;;;;;;;6381674;22;20195;-93
2022/02/26 02:34:17;;;;;;;264.17;61.58;;;;;;;;;;6379106;22;20172;-91
2022/02/26 02:36:43;;;;;;;261.10;59.90;;;;;;;;;;6380402;22;20207;-91
2022/02/26 02:39:11;;;;;;;262.60;58.63;;;;;;;;;;6381587;22;20192;-91
2022/02/26 02:41:38;;;;;;;270.13;62.53;;;;;;;;;;6381210;22;20176;-92
2022/02/26 02:44:05;;;;;;;265.00;59.75;;;;;;;;;;6382660;22;20173;-91
2022/02/26 02:46:31;;;;;;;260.40;60.53;;;;;;;;;;6382118;22;20199;-90
2022/02/26 02:48:58;;;;;;;249.55;60.10;;;;;;;;;;6381682;22;20230;-91
2022/02/26 02:51:24;;;;;;;261.35;61.60;;;;;;;;;;6382016;22;20230;-92
2022/02/26 02:53:50;;;;;;;258.23;59.17;;;;;;;;;;6380859;22;20172;-92
2022/02/26 02:56:18;;;;;;;250.00;59.30;;;;;;;;;;6379934;22;20198;-92
2022/02/26 02:58:45;;;;;;;254.82;60.15;;;;;;;;;;6379114;22;20207;-92
2022/02/26 03:01:11;;;;;;;244.25;57.22;;;;;;;;;;6380164;22;20199;-92
2022/02/26 03:03:38;;;;;;;251.90;60.80;;;;;;;;;;6381612;22;20195;-92
2022/02/26 03:06:05;;;;;;;250.20;58.92;;;;;;;;;;6382633;22;20202;-92
2022/02/26 03:08:32;;;;;;;253.73;60.22;;;;;;;;;;6381019;22;20226;-91
2022/02/26 03:10:59;;;;;;;245.07;58.42;;;;;;;;;;6381505;22;20168;-92
2022/02/26 03:13:27;;;;;;;243.73;56.95;;;;;;;;;;6381390;22;20172;-90
2022/02/26 03:15:55;;;;;;;254.40;59.75;;;;;;;;;;6381731;22;20229;-91
2022/02/26 03:18:23;;;;;;;251.75;59.75;;;;;;;;;;6379424;22;20231;-91
2022/02/26 03:20:49;;;;;;;252.05;61.88;;;;;;;;;;6379810;22;20195;-91
2022/02/26 03:23:16;;;;;;;255.50;61.28;;;;;;;;;;6379220;22;20173;-92
2022/02/26 03:25:42;;;;;;;257.58;58.95;;;;;;;;;;6379445;22;20194;-91
2022/02/26 03:28:09;;;;;;;259.55;61.30;;;;;;;;;;6382012;22;20188;-91
2022/02/26 03:30:37;;;;;;;265.40;60.05;;;;;;;;;;6382116;22;20199;-91
2022/02/26 03:33:03;;;;;;;262.83;61.47;;;;;;;;;;6379407;22;20173;-91
2022/02/26 03:35:30;;;;;;;260.15;62.63;;;;;;;;;;6379646;22;20173;-92
2022/02/26 03:37:56;;;;;;;262.65;61.30;;;;;;;;;;6380159;22;20226;-92
2022/02/26 03:40:23;;;;;;;256.48;59.83;;;;;;;;;;6379246;22;20196;-91
2022/02/26 03:42:50;;;;;;;257.05;61.38;;;;;;;;;;6380771;22;20172;-91
2022/02/26 03:45:17;;;;;;;262.05;60.22;;;;;;;;;;6381384;22;20198;-92
2022/02/26 03:47:44;;;;;;;267.02;62.63;;;;;;;;;;6381068;22;20180;-93
2022/02/26 03:50:11;;;;;;;262.70;60.05;;;;;;;;;;6380330;22;20195;-92
2022/02/26 03:52:38;;;;;;;262.48;60.00;;;;;;;;;;6381169;22;20179;-92
2022/02/26 03:55:05;;;;;;;266.67;63.38;;;;;;;;;;6381064;22;20172;-92
2022/02/26 03:57:32;;;;;;;263.00;60.83;;;;;;;;;;6380448;22;20233;-92
2022/02/26 03:59:59;;;;;;;267.52;61.85;;;;;;;;;;6378738;22;20187;-92
2022/02/26 04:02:25;;;;;;;265.85;61.55;;;;;;;;;;6380730;22;20194;-92
2022/02/26 04:04:53;;;;;;;262.20;60.15;;;;;;;;;;6381053;22;20195;-91
2022/02/26 04:07:20;;;;;;;267.60;61.78;;;;;;;;;;6380727;22;20195;-91
2022/02/26 04:09:46;;;;;;;273.10;63.20;;;;;;;;;;6380653;22;20195;-92
2022/02/26 04:12:13;;;;;;;261.35;63.25;;;;;;;;;;6381093;22;20234;-92
2022/02/26 04:14:39;;;;;;;265.90;63.10;;;;;;;;;;6380625;22;20237;-91
2022/02/26 04:17:07;;;;;;;256.55;59.72;;;;;;;;;;6380511;22;20249;-92
2022/02/26 04:19:33;;;;;;;263.60;63.47;;;;;;;;;;6379896;22;20179;-90
2022/02/26 04:22:01;;;;;;;257.17;59.65;;;;;;;;;;6380144;22;20226;-91
2022/02/26 04:24:28;;;;;;;262.05;61.40;;;;;;;;;;6380572;22;20173;-91
2022/02/26 04:26:54;;;;;;;257.35;60.15;;;;;;;;;;6380179;22;20194;-92
2022/02/26 04:29:21;;;;;;;261.30;59.70;;;;;;;;;;6380754;22;20200;-92
2022/02/26 04:31:47;;;;;;;262.30;61.00;;;;;;;;;;6381140;22;20199;-92
2022/02/26 04:34:14;;;;;;;256.42;58.75;;;;;;;;;;6381142;22;20198;-91
2022/02/26 04:36:40;;;;;;;265.30;59.90;;;;;;;;;;6380681;22;20176;-91
2022/02/26 04:39:08;;;;;;;260.45;57.67;;;;;;;;;;6379803;22;20269;-91
2022/02/26 04:41:35;;;;;;;259.27;58.05;;;;;;;;;;6380399;22;20173;-91
2022/02/26 04:44:02;;;;;;;257.65;58.70;;;;;;;;;;6380879;22;20169;-92
2022/02/26 04:46:28;;;;;;;271.67;59.75;;;;;;;;;;6381188;22;20172;-91
2022/02/26 04:48:55;;;;;;;260.30;58.50;;;;;;;;;;6380898;22;20177;-90
2022/02/26 04:51:22;;;;;;;257.27;58.30;;;;;;;;;;6380759;22;20172;-92
2022/02/26 04:53:48;;;;;;;261.33;60.83;;;;;;;;;;6379105;22;20198;-92
2022/02/26 04:56:16;;;;;;;251.55;58.30;;;;;;;;;;6378514;22;20173;-92
2022/02/26 04:58:43;;;;;;;250.57;59.83;;;;;;;;;;6379882;22;20200;-92
2022/02/26 05:01:09;;;;;;;251.60;59.08;;;;;;;;;;6380155;22;20180;-91
2022/02/26 05:03:36;;;;;;;255.13;60.75;;;;;;;;;;6378431;22;20172;-89
2022/02/26 05:06:02;;;;;;;258.13;60.50;;;;;;;;;;6379096;22;20237;-90
2022/02/26 05:08:29;;;;;;;265.67;61.33;;;;;;;;;;6379685;22;20177;-92
2022/02/26 05:10:55;;;;;;;267.13;63.45;;;;;;;;;;6379281;22;20229;-92
2022/02/26 05:13:25;;;;;;;251.13;58.17;;;;;;;;;;6380138;22;20199;-93
2022/02/26 05:15:51;;;;;;;250.65;57.72;;;;;;;;;;6380384;22;20194;-92
2022/02/26 05:18:18;;;;;;;263.88;61.30;;;;;;;;;;6378046;22;20200;-92
2022/02/26 05:20:44;;;;;;;252.85;58.30;;;;;;;;;;6378112;22;20230;-91
2022/02/26 05:23:11;;;;;;;256.25;60.95;;;;;;;;;;6377426;22;20181;-91
2022/02/26 05:25:37;;;;;;;265.80;60.30;;;;;;;;;;6376275;22;20177;-91
2022/02/26 05:28:04;;;;;;;258.02;61.20;;;;;;;;;;6378188;22;20207;-91
2022/02/26 05:30:32;;;;;;;262.80;60.10;;;;;;;;;;6376441;22;20172;-93
2022/02/26 05:32:58;;;;;;;264.92;62.25;;;;;;;;;;6378620;22;20201;-93
2022/02/26 05:35:25;;;;;;;255.63;59.08;;;;;;;;;;6378352;22;20173;-93
2022/02/26 05:37:51;;;;;;;259.33;60.25;;;;;;;;;;6379111;22;20200;-92
2022/02/26 05:40:18;;;;;;;265.92;61.03;;;;;;;;;;6377943;22;20226;-92
2022/02/26 05:42:44;;;;;;;264.17;60.22;;;;;;;;;;6378805;22;20173;-91
2022/02/26 05:45:11;;;;;;;275.55;63.08;;;;;;;;;;6378322;22;20169;-92
2022/02/26 05:47:38;;;;;;;267.13;62.47;;;;;;;;;;6377514;22;20177;-92
2022/02/26 05:50:05;;;;;;;271.25;64.03;;;;;;;;;;6376711;22;20234;-91
2022/02/26 05:52:32;;;;;;;269.83;62.60;;;;;;;;;;6377692;22;20173;-93
2022/02/26 05:54:58;;;;;;;270.10;66.13;;;;;;;;;;6377698;22;20678;-92
2022/02/26 05:57:25;;;;;;;273.15;63.95;;;;;;;;;;6379210;22;20169;-92
2022/02/26 05:59:51;;;;;;;275.48;63.03;;;;;;;;;;6380013;22;20180;-92
2022/02/26 06:02:17;;;;;;;278.52;63.22;;;;;;;;;;6378692;22;20172;-93
2022/02/26 06:04:46;;;;;;;277.15;65.05;;;;;;;;;;6380226;22;20173;-93
2022/02/26 06:07:12;;;;;;;299.92;68.10;;;;;;;;;;6381553;22;20187;-93
2022/02/26 06:09:39;;;;;;;290.70;68.97;;;;;;;;;;6381343;22;20176;-93
2022/02/26 06:12:06;;;;;;;303.02;72.18;;;;;;;;;;6381178;22;20179;-93
2022/02/26 06:14:32;;;;;;;293.35;69.40;;;;;;;;;;6380870;22;20169;-93
2022/02/26 06:16:59;;;;;;;299.00;69.22;;;;;;;;;;6379970;22;20172;-91
2022/02/26 06:19:25;;;;;;;300.73;69.07;;;;;;;;;;6377281;22;20231;-94
2022/02/26 06:21:53;;;;;;;299.20;75.75;;;;;;;;;;6378385;22;20177;-92
2022/02/26 06:24:20;;;;;;;312.20;73.22;;;;;;;;;;6380592;22;20198;-93
2022/02/26 06:26:46;;;;;;;304.13;70.43;;;;;;;;;;6380732;22;20180;-93
2022/02/26 06:29:13;;;;;;;316.08;70.45;;;;;;;;;;6381213;22;20173;-94
2022/02/26 06:31:39;;;;;;;307.90;72.22;;;;;;;;;;6381357;22;20173;-94
2022/02/26 06:34:06;;;;;;;297.20;69.30;;;;;;;;;;6380437;22;20226;-93
2022/02/26 06:36:33;;;;;;;298.02;68.78;;;;;;;;;;6380360;22;20173;-93
2022/02/26 06:39:01;;;;;;;304.45;69.25;;;;;;;;;;6381220;22;20212;-93
2022/02/26 06:41:29;;;;;;;298.35;69.57;;;;;;;;;;6381132;22;20173;-96
2022/02/26 06:43:56;;;;;;;300.75;69.15;;;;;;;;;;6381511;22;20199;-94
2022/02/26 06:46:22;;;;;;;306.38;71.20;;;;;;;;;;6381371;22;20245;-93
2022/02/26 06:48:49;;;;;;;296.05;69.78;;;;;;;;;;6378703;22;20173;-94
2022/02/26 06:51:15;;;;;;;296.90;67.03;;;;;;;;;;6378443;22;20172;-95
2022/02/26 06:53:42;;;;;;;301.83;73.75;;;;;;;;;;6378553;22;20172;-95
2022/02/26 06:56:10;;;;;;;311.98;71.75;;;;;;;;;;6381309;22;20536;-96
2022/02/26 06:58:37;;;;;;;309.38;72.18;;;;;;;;;;6380456;22;20283;-96
2022/02/26 07:01:04;;;;;;;313.63;72.55;;;;;;;;;;6379619;22;20199;-94
2022/02/26 07:03:30;;;;;;;313.20;71.35;;;;;;;;;;6382104;22;20173;-96
2022/02/26 07:05:57;;;;;;;305.73;71.38;;;;;;;;;;6387170;22;20241;-96
2022/02/26 07:08:23;;;;;;;315.08;72.15;;;;;;;;;;6384417;22;20173;-96
2022/02/26 07:10:50;;;;;;;326.20;74.00;;;;;;;;;;6381947;22;20501;-94
2022/02/26 07:13:18;;;;;;;325.48;74.25;;;;;;;;;;6379665;22;20169;-95
2022/02/26 07:15:44;;;;;;;326.58;78.13;;;;;;;;;;6378225;22;20448;-96
2022/02/26 07:18:12;;;;;;;318.77;75.70;;;;;;;;;;6381194;22;20254;-95
2022/02/26 07:20:39;;;;;;;319.13;74.07;;;;;;;;;;6358789;22;20175;-95
2022/02/26 07:23:06;;;;;;;316.83;73.80;;;;;;;;;;6384423;22;20179;-95
2022/02/26 07:25:32;;;;;;;322.27;73.32;;;;;;;;;;6381444;22;20265;-95
2022/02/26 07:27:58;;;;;;;316.20;75.07;;;;;;;;;;6381663;22;20206;-95
2022/02/26 07:30:26;;;;;;;323.63;78.40;;;;;;;;;;6379604;22;20173;-95
2022/02/26 07:32:53;;;;;;;321.45;73.50;;;;;;;;;;6379861;22;20177;-95
2022/02/26 07:35:19;;;;;;;319.98;76.13;;;;;;;;;;6378097;22;20173;-95
2022/02/26 07:37:46;;;;;;;328.90;76.40;;;;;;;;;;6376072;22;20525;-95
2022/02/26 07:40:13;;;;;;;329.20;79.15;;;;;;;;;;6375281;22;20250;-96
2022/02/26 07:42:40;;;;;;;329.88;74.88;;;;;;;;;;6379256;22;20234;-94
2022/02/26 07:45:07;;;;;;;325.98;73.60;;;;;;;;;;6379376;22;20172;-94
2022/02/26 07:47:35;;;;;;;316.80;71.88;;;;;;;;;;6379430;22;20173;-94
2022/02/26 07:50:02;;;;;;;341.23;76.63;;;;;;;;;;6378559;22;20172;-93
2022/02/26 07:52:31;;;;;;;338.92;77.05;;;;;;;;;;6380111;22;20230;-94
2022/02/26 07:54:57;;;;;;;336.75;75.95;;;;;;;;;;6379684;22;20180;-95
2022/02/26 07:57:24;;;;;;;339.90;78.30;;;;;;;;;;6379662;22;20173;-94
2022/02/26 07:59:50;;;;;;;336.80;79.15;;;;;;;;;;6378814;22;20229;-94
2022/02/26 08:02:17;;;;;;;343.83;80.35;;;;;;;;;;6377975;22;20173;-94
2022/02/26 08:04:45;;;;;;;352.02;81.47;;;;;;;;;;6377889;22;20195;-95
2022/02/26 08:07:12;;;;;;;337.65;77.85;;;;;;;;;;6377293;22;20179;-93
2022/02/26 08:09:38;;;;;;;351.25;79.40;;;;;;;;;;6376658;22;20176;-93
2022/02/26 08:12:05;;;;;;;347.65;77.55;;;;;;;;;;6376890;22;20172;-93
2022/02/26 08:14:32;;;;;;;346.92;77.78;;;;;;;;;;6377656;22;20261;-93
2022/02/26 08:16:59;;;;;;;355.55;77.93;;;;;;;;;;6377218;22;20173;-95
2022/02/26 08:19:25;;;;;;;364.75;83.72;;;;;;;;;;6377831;22;20204;-94
2022/02/26 08:21:53;;;;;;;349.95;77.53;;;;;;;;;;6373540;22;20217;-93
2022/02/26 08:24:20;;;;;;;350.98;79.47;;;;;;;;;;6379997;22;20178;-93
2022/02/26 08:26:46;;;;;;;357.63;78.63;;;;;;;;;;6379241;22;20240;-94
2022/02/26 08:29:13;;;;;;;364.35;80.72;;;;;;;;;;6376947;22;20172;-93
2022/02/26 08:31:40;;;;;;;357.00;79.90;;;;;;;;;;6376563;22;20173;-93
2022/02/26 08:34:06;;;;;;;351.70;77.30;;;;;;;;;;6375612;22;20636;-93
2022/02/26 08:36:33;;;;;;;362.50;79.15;;;;;;;;;;6375858;22;20289;-94
2022/02/26 08:39:00;;;;;;;368.90;83.07;;;;;;;;;;6375883;22;20260;-92
2022/02/26 08:41:28;;;;;;;372.08;79.18;;;;;;;;;;6377916;22;20177;-94
2022/02/26 08:43:54;;;;;;;369.38;79.95;;;;;;;;;;6378144;22;20172;-92
2022/02/26 08:46:20;;;;;;;378.45;78.65;;;;;;;;;;6377301;22;20168;-93
2022/02/26 08:48:47;;;;;;;363.88;79.63;;;;;;;;;;6376548;22;20237;-93
2022/02/26 08:51:14;;;;;;;365.10;79.45;;;;;;;;;;6377270;22;20172;-92
2022/02/26 08:53:40;;;;;;;367.33;78.72;;;;;;;;;;6378542;22;20172;-92
2022/02/26 08:56:08;;;;;;;360.98;76.07;;;;;;;;;;6378500;22;20538;-92
2022/02/26 08:58:35;;;;;;;368.23;79.10;;;;;;;;;;6377212;22;20767;-93
2022/02/26 09:01:01;;;;;;;374.65;77.47;;;;;;;;;;6377803;22;20230;-93
2022/02/26 09:03:27;;;;;;;365.45;79.50;;;;;;;;;;6378399;22;20177;-95
2022/02/26 09:05:54;;;;;;;375.48;78.85;;;;;;;;;;6374562;22;20203;-94
2022/02/26 09:08:20;;;;;;;366.67;78.40;;;;;;;;;;6379504;22;20172;-95
2022/02/26 09:10:47;;;;;;;380.85;82.40;;;;;;;;;;6377504;22;20198;-95
2022/02/26 09:13:15;;;;;;;384.08;82.95;;;;;;;;;;6381808;22;20177;-95
2022/02/26 09:15:41;;;;;;;378.35;80.53;;;;;;;;;;6375865;22;20172;-94
2022/02/26 09:18:08;;;;;;;384.10;83.50;;;;;;;;;;6372387;22;20172;-95
2022/02/26 09:20:34;;;;;;;394.30;87.63;;;;;;;;;;6373947;22;20196;-96
2022/02/26 09:23:01;;;;;;;390.88;85.20;;;;;;;;;;6375941;22;20199;-95
2022/02/26 09:25:27;;;;;;;396.48;84.90;;;;;;;;;;6378030;22;20169;-96
2022/02/26 09:27:54;;;;;;;405.65;88.15;;;;;;;;;;6378479;22;20200;-96
2022/02/26 09:30:22;;;;;;;403.30;85.03;;;;;;;;;;6376997;22;20245;-95
2022/02/26 09:32:49;;;;;;;417.83;92.53;;;;;;;;;;6380630;22;20222;-96
2022/02/26 09:35:15;;;;;;;408.63;87.53;;;;;;;;;;6382314;22;20770;-96
2022/02/26 09:37:42;;;;;;;417.73;93.35;;;;;;;;;;6382216;22;20730;-95
2022/02/26 09:40:09;;;;;;;415.25;93.70;;;;;;;;;;6381435;22;20265;-95
2022/02/26 09:42:36;;;;;;;411.90;91.35;;;;;;;;;;6382746;22;20199;-94
2022/02/26 09:45:03;;;;;;;407.08;91.18;;;;;;;;;;6382376;22;20173;-95
2022/02/26 09:47:31;;;;;;;416.67;94.93;;;;;;;;;;6381511;22;20179;-94
2022/02/26 09:49:57;;;;;;;417.70;91.10;;;;;;;;;;6382606;22;20172;-95
2022/02/26 09:52:25;;;;;;;421.45;94.28;;;;;;;;;;6382436;22;20173;-96
2022/02/26 09:54:51;;;;;;;424.10;98.05;;;;;;;;;;6383459;22;20198;-95
2022/02/26 09:57:21;;;;;;;422.65;97.10;;;;;;;;;;6382849;22;20198;-95
2022/02/26 09:59:47;;;;;;;418.38;89.78;;;;;;;;;;6383759;22;20196;-95
2022/02/26 10:02:14;;;;;;;424.52;94.25;;;;;;;;;;6381311;22;20176;-96
2022/02/26 10:04:52;;;;;;;423.58;95.30;;;;;;;;;;6380013;22;20566;-94
2022/02/26 10:07:22;;;;;;;424.63;94.60;;;;;;;;;;6379012;22;20172;-95
2022/02/26 10:09:49;;;;;;;427.05;97.53;;;;;;;;;;6379158;22;20179;-96
2022/02/26 10:12:22;;;;;;;434.27;100.30;;;;;;;;;;6380161;22;20172;-94
2022/02/26 10:14:50;;;;;;;431.90;98.40;;;;;;;;;;6381611;22;20196;-94
2022/02/26 10:17:27;;;;;;;441.73;101.25;;;;;;;;;;6381754;22;20169;-95
2022/02/26 10:20:01;;;;;;;449.38;114.72;;;;;;;;;;6381477;22;20204;-95
2022/02/26 10:22:29;;;;;;;446.35;108.43;;;;;;;;;;6381149;22;20198;-93
2022/02/26 10:24:56;;;;;;;442.30;106.43;;;;;;;;;;6380064;22;20172;-92
2022/02/26 10:27:26;;;;;;;444.00;106.85;;;;;;;;;;6381027;22;20202;-94
2022/02/26 10:29:53;;;;;;;441.52;105.82;;;;;;;;;;6381445;22;20173;-93
2022/02/26 10:32:20;;;;;;;444.38;106.07;;;;;;;;;;6382142;22;20173;-96
2022/02/26 10:34:46;;;;;;;451.80;112.07;;;;;;;;;;6380088;22;20233;-94
2022/02/26 10:37:15;;;;;;;450.30;110.32;;;;;;;;;;6383040;22;20687;-94
2022/02/26 10:39:43;;;;;;;445.20;107.22;;;;;;;;;;6379505;22;20226;-95
2022/02/26 10:42:11;;;;;;;446.02;110.07;;;;;;;;;;6378856;22;20172;-94
2022/02/26 10:44:39;;;;;;;444.48;107.72;;;;;;;;;;6380423;22;20201;-96
2022/02/26 10:47:07;;;;;;;450.80;107.68;;;;;;;;;;6381736;22;20173;-94
2022/02/26 10:49:33;;;;;;;444.67;109.25;;;;;;;;;;6380543;22;20221;-96
2022/02/26 10:52:05;;;;;;;489.50;119.80;;;;;;;;;;6377689;22;21199;-94
2022/02/26 10:54:33;;;;;;;497.05;127.25;;;;;;;;;;6381004;22;20198;-95
2022/02/26 10:57:00;;;;;;;504.50;134.85;;;;;;;;;;6379376;22;20172;-95
2022/02/26 10:59:28;;;;;;;507.25;134.07;;;;;;;;;;6381115;22;20196;-95
2022/02/26 11:01:59;;;;;;;491.50;128.57;;;;;;;;;;6383243;22;20176;-96
2022/02/26 11:04:25;;;;;;;494.98;125.75;;;;;;;;;;6384071;22;20172;-96
2022/02/26 11:06:52;;;;;;;498.45;127.70;;;;;;;;;;6383889;22;20230;-96
2022/02/26 11:09:19;;;;;;;517.90;140.18;;;;;;;;;;6381449;22;20173;-92
2022/02/26 11:11:49;;;;;;;568.50;170.02;;;;;;;;;;6380970;22;20184;-93
2022/02/26 11:14:16;;;;;;;574.38;172.85;;;;;;;;;;6378604;22;20198;-96
2022/02/26 11:16:42;;;;;;;593.40;186.23;;;;;;;;;;6377111;22;20199;-94
2022/02/26 11:19:10;;;;;;;498.95;146.77;;;;;;;;;;6377269;22;20176;-94
2022/02/26 11:21:37;;;;;;;508.55;148.00;;;;;;;;;;6379795;22;20179;-93
2022/02/26 11:24:04;;;;;;;529.45;166.88;;;;;;;;;;6386753;22;20169;-94
2022/02/26 11:26:32;;;;;;;541.20;178.75;;;;;;;;;;6378756;22;20173;-94
2022/02/26 11:29:05;;;;;;;481.75;143.90;;;;;;;;;;6375178;22;20173;-92
2022/02/26 11:31:33;;;;;;;470.65;130.13;;;;;;;;;;6382377;22;20173;-94
2022/02/26 11:34:00;;;;;;;442.27;121.63;;;;;;;;;;6383270;22;20176;-94
2022/02/26 11:36:45;;;;;;;434.65;120.50;;;;;;;;;;6381294;22;20771;-95
2022/02/26 11:39:21;;;;;;;387.20;106.47;;;;;;;;;;6382550;22;20632;-94
2022/02/26 11:41:47;;;;;;;340.30;95.20;;;;;;;;;;6385014;22;20394;-94
2022/02/26 11:44:35;;;;;;;330.13;98.07;;;;;;;;;;6375612;22;20410;-94
2022/02/26 11:47:11;;;;;;;338.90;102.53;;;;;;;;;;6370338;22;20406;-93
2022/02/26 11:49:38;;;;;;;362.50;103.73;;;;;;;;;;6378404;22;20410;-94
2022/02/26 11:52:05;;;;;;;332.33;94.53;;;;;;;;;;6377901;22;20406;-93
2022/02/26 11:54:31;;;;;;;412.87;119.50;;;;;;;;;;6378613;22;20429;-93
2022/02/26 11:56:59;;;;;;;442.93;131.97;;;;;;;;;;6378705;22;20407;-94
2022/02/26 11:59:37;;;;;;;428.60;120.37;;;;;;;;;;6382473;22;20476;-94
2022/02/26 12:02:05;;;;;;;413.03;119.67;;;;;;;;;;6384034;22;20402;-95
2022/02/26 12:04:46;;;;;;;373.60;109.77;;;;;;;;;;6377885;22;20415;-93
2022/02/26 12:07:28;;;;;;;443.50;126.38;;;;;;;;;;6370972;22;20962;-94
2022/02/26 12:09:58;;;;;;;444.85;121.20;;;;;;;;;;6378859;22;20180;-93
2022/02/26 12:12:31;;;;;;;439.43;128.47;;;;;;;;;;6380077;22;20180;-93
2022/02/26 12:14:59;;;;;;;430.35;119.25;;;;;;;;;;6380312;22;20426;-94
2022/02/26 12:17:25;;;;;;;411.93;112.83;;;;;;;;;;6380336;22;20173;-93
2022/02/26 12:19:52;;;;;;;431.48;119.50;;;;;;;;;;6379347;22;20476;-93
2022/02/26 12:22:19;;;;;;;433.73;122.75;;;;;;;;;;6377937;22;20296;-95
2022/02/26 12:24:49;;;;;;;437.27;127.60;;;;;;;;;;6379662;22;20169;-94
2022/02/26 12:27:16;;;;;;;437.88;127.32;;;;;;;;;;6380776;22;20217;-94
2022/02/26 12:29:53;;;;;;;439.08;127.80;;;;;;;;;;6382794;22;20179;-94
2022/02/26 12:32:21;;;;;;;445.35;126.40;;;;;;;;;;6379797;22;20172;-93
2022/02/26 12:34:49;;;;;;;435.98;122.95;;;;;;;;;;6379743;22;20176;-93
2022/02/26 12:37:19;;;;;;;427.65;119.43;;;;;;;;;;6380467;22;20173;-94
2022/02/26 12:39:47;;;;;;;441.80;125.97;;;;;;;;;;6379463;22;20299;-94
2022/02/26 12:42:18;;;;;;;444.27;132.68;;;;;;;;;;6379558;22;20727;-95
2022/02/26 12:44:45;;;;;;;441.75;129.20;;;;;;;;;;6380159;22;20229;-94
2022/02/26 12:47:11;;;;;;;444.52;127.93;;;;;;;;;;6379594;22;20172;-93
2022/02/26 12:49:40;;;;;;;454.20;137.27;;;;;;;;;;6377786;22;20176;-94
2022/02/26 12:52:07;;;;;;;443.10;133.95;;;;;;;;;;6380403;22;20402;-95
2022/02/26 12:54:34;;;;;;;448.73;135.85;;;;;;;;;;6381093;22;20177;-94
2022/02/26 12:57:02;;;;;;;453.42;136.05;;;;;;;;;;6381113;22;20168;-94
2022/02/26 12:59:29;;;;;;;448.65;134.63;;;;;;;;;;6379825;22;20173;-93
2022/02/26 13:01:56;;;;;;;446.85;136.95;;;;;;;;;;6379594;22;20179;-93
2022/02/26 13:04:23;;;;;;;444.20;134.80;;;;;;;;;;6382206;22;20176;-92
2022/02/26 13:06:52;;;;;;;444.45;128.70;;;;;;;;;;6381474;22;20173;-93
2022/02/26 13:09:18;;;;;;;465.83;144.65;;;;;;;;;;6377945;22;20177;-93
2022/02/26 13:11:45;;;;;;;434.20;122.82;;;;;;;;;;6376248;22;20204;-94
2022/02/26 13:14:12;;;;;;;449.35;128.93;;;;;;;;;;6377676;22;20195;-94
2022/02/26 13:16:38;;;;;;;444.20;119.72;;;;;;;;;;6380668;22;20173;-94
2022/02/26 13:19:05;;;;;;;446.42;127.18;;;;;;;;;;6381912;22;20218;-95
2022/02/26 13:21:38;;;;;;;441.95;126.85;;;;;;;;;;6382090;22;20200;-95
2022/02/26 13:24:07;;;;;;;446.00;133.32;;;;;;;;;;6379776;22;20226;-94
2022/02/26 13:26:34;;;;;;;449.83;131.10;;;;;;;;;;6378403;22;20194;-96
2022/02/26 13:29:01;;;;;;;450.67;138.20;;;;;;;;;;6379639;22;20173;-94
2022/02/26 13:31:35;;;;;;;459.55;146.10;;;;;;;;;;6379706;22;20173;-93
2022/02/26 13:34:15;;;;;;;456.48;141.52;;;;;;;;;;6382895;22;20177;-93
2022/02/26 13:36:41;;;;;;;466.08;150.63;;;;;;;;;;6376194;22;20172;-94
2022/02/26 13:39:09;;;;;;;466.80;148.38;;;;;;;;;;6371097;22;20196;-92
2022/02/26 13:41:38;;;;;;;463.33;139.50;;;;;;;;;;6380234;22;20192;-92
2022/02/26 13:44:05;;;;;;;446.67;132.40;;;;;;;;;;6383319;22;20176;-95
2022/02/26 13:46:32;;;;;;;451.58;128.68;;;;;;;;;;6383649;22;20172;-94
2022/02/26 13:49:01;;;;;;;455.48;132.98;;;;;;;;;;6381782;22;20233;-94
2022/02/26 13:51:31;;;;;;;444.65;128.05;;;;;;;;;;6381915;22;20199;-94
2022/02/26 13:53:57;;;;;;;451.58;132.77;;;;;;;;;;6378413;22;20176;-94
2022/02/26 13:56:27;;;;;;;456.90;136.45;;;;;;;;;;6376104;22;20175;-94
2022/02/26 13:58:54;;;;;;;552.95;213.00;;;;;;;;;;6384066;22;20180;-95
2022/02/26 14:01:21;;;;;;;457.65;135.27;;;;;;;;;;6383293;22;20204;-95
2022/02/26 14:03:48;;;;;;;445.35;125.10;;;;;;;;;;6380916;22;20172;-93
2022/02/26 14:06:15;;;;;;;475.85;145.32;;;;;;;;;;6382051;22;20227;-94